sensor_id;sensor_type;location;lat;lon;timestamp;P1;durP1;ratioP1;P2;durP2;ratioP2
7295;SDS011;40758;54.038;11.684;2023-06-22T00:01:20;19.15;;;10.32;;
7295;SDS011;40758;54.038;11.684;2023-06-22T00:03:49;15.15;;;9.05;;
7295;SDS011;40758;54.038;11.684;2023-06-22T00:06:16;16.08;;;8.88;;
7295;SDS011;40758;54.038;11.684;2023-06-22T00:08:42;13.98;;;9.43;;
7295;SDS011;40758;54.038;11.684;2023-06-22T00:11:09;12.10;;;6.72;;
7295;SDS011;40758;54.038;11.684;2023-06-22T00:13:36;13.05;;;7.95;;
7295;SDS011;40758;54.038;11.684;2023-06-22T00:16:03;13.38;;;8.10;;
7295;SDS011;40758;54.038;11.684;2023-06-22T00:18:30;12.98;;;7.25;;
7295;SDS011;40758;54.038;11.684;2023-06-22T00:20:58;16.77;;;9.68;;
7295;SDS011;40758;54.038;11.684;2023-06-22T00:23:25;16.20;;;9.65;;
7295;SDS011;40758;54.038;11.684;2023-06-22T00:25:52;15.77;;;8.45;;
7295;SDS011;40758;54.038;11.684;2023-06-22T00:28:19;17.38;;;11.68;;
7295;SDS011;40758;54.038;11.684;2023-06-22T00:30:46;16.98;;;10.85;;
7295;SDS011;40758;54.038;11.684;2023-06-22T00:33:15;18.20;;;9.00;;
7295;SDS011;40758;54.038;11.684;2023-06-22T00:35:42;16.08;;;9.18;;
7295;SDS011;40758;54.038;11.684;2023-06-22T00:38:09;18.35;;;10.85;;
7295;SDS011;40758;54.038;11.684;2023-06-22T00:40:36;19.30;;;10.88;;
7295;SDS011;40758;54.038;11.684;2023-06-22T00:43:03;16.15;;;9.70;;
7295;SDS011;40758;54.038;11.684;2023-06-22T00:45:31;16.30;;;9.98;;
7295;SDS011;40758;54.038;11.684;2023-06-22T00:47:58;13.60;;;7.65;;
7295;SDS011;40758;54.038;11.684;2023-06-22T00:50:27;16.45;;;9.20;;
7295;SDS011;40758;54.038;11.684;2023-06-22T00:53:01;13.13;;;7.55;;
7295;SDS011;40758;54.038;11.684;2023-06-22T00:55:35;12.75;;;8.13;;
7295;SDS011;40758;54.038;11.684;2023-06-22T00:58:08;14.65;;;7.38;;
7295;SDS011;40758;54.038;11.684;2023-06-22T01:00:37;16.38;;;9.55;;
7295;SDS011;40758;54.038;11.684;2023-06-22T01:05:36;12.95;;;8.35;;
7295;SDS011;40758;54.038;11.684;2023-06-22T01:10:53;18.20;;;10.18;;
7295;SDS011;40758;54.038;11.684;2023-06-22T01:13:32;14.80;;;9.98;;
7295;SDS011;40758;54.038;11.684;2023-06-22T01:16:09;23.33;;;12.10;;
7295;SDS011;40758;54.038;11.684;2023-06-22T01:18:41;18.58;;;10.02;;
7295;SDS011;40758;54.038;11.684;2023-06-22T01:21:11;16.38;;;9.07;;
7295;SDS011;40758;54.038;11.684;2023-06-22T01:23:47;16.23;;;9.85;;
7295;SDS011;40758;54.038;11.684;2023-06-22T01:26:42;14.45;;;7.82;;
7295;SDS011;40758;54.038;11.684;2023-06-22T01:29:11;17.45;;;10.77;;
7295;SDS011;40758;54.038;11.684;2023-06-22T01:31:40;17.17;;;9.60;;
7295;SDS011;40758;54.038;11.684;2023-06-22T01:34:09;14.75;;;9.38;;
7295;SDS011;40758;54.038;11.684;2023-06-22T01:36:38;11.13;;;7.30;;
7295;SDS011;40758;54.038;11.684;2023-06-22T01:39:05;13.90;;;6.80;;
7295;SDS011;40758;54.038;11.684;2023-06-22T01:41:34;10.00;;;6.32;;
7295;SDS011;40758;54.038;11.684;2023-06-22T01:44:07;10.10;;;6.03;;
7295;SDS011;40758;54.038;11.684;2023-06-22T01:46:36;9.93;;;6.07;;
7295;SDS011;40758;54.038;11.684;2023-06-22T01:49:03;11.13;;;6.80;;
7295;SDS011;40758;54.038;11.684;2023-06-22T01:51:31;11.10;;;7.03;;
7295;SDS011;40758;54.038;11.684;2023-06-22T01:53:59;11.10;;;6.70;;
7295;SDS011;40758;54.038;11.684;2023-06-22T01:56:27;12.50;;;8.73;;
7295;SDS011;40758;54.038;11.684;2023-06-22T01:59:00;13.25;;;8.50;;
7295;SDS011;40758;54.038;11.684;2023-06-22T02:01:54;11.95;;;7.32;;
7295;SDS011;40758;54.038;11.684;2023-06-22T02:04:51;13.57;;;8.45;;
7295;SDS011;40758;54.038;11.684;2023-06-22T02:07:18;14.52;;;9.48;;
7295;SDS011;40758;54.038;11.684;2023-06-22T02:09:48;14.18;;;8.55;;
7295;SDS011;40758;54.038;11.684;2023-06-22T02:12:21;14.43;;;8.63;;
7295;SDS011;40758;54.038;11.684;2023-06-22T02:14:51;15.68;;;9.00;;
7295;SDS011;40758;54.038;11.684;2023-06-22T02:17:18;13.80;;;7.78;;
7295;SDS011;40758;54.038;11.684;2023-06-22T02:19:45;12.90;;;8.98;;
7295;SDS011;40758;54.038;11.684;2023-06-22T02:22:12;13.40;;;8.07;;
7295;SDS011;40758;54.038;11.684;2023-06-22T02:24:40;13.60;;;8.20;;
7295;SDS011;40758;54.038;11.684;2023-06-22T02:27:06;12.85;;;7.75;;
7295;SDS011;40758;54.038;11.684;2023-06-22T02:29:33;13.13;;;6.32;;
7295;SDS011;40758;54.038;11.684;2023-06-22T02:32:00;10.82;;;7.32;;
7295;SDS011;40758;54.038;11.684;2023-06-22T02:34:27;12.20;;;7.78;;
7295;SDS011;40758;54.038;11.684;2023-06-22T02:36:53;11.32;;;7.15;;
7295;SDS011;40758;54.038;11.684;2023-06-22T02:39:21;10.60;;;6.63;;
7295;SDS011;40758;54.038;11.684;2023-06-22T02:41:49;10.05;;;5.90;;
7295;SDS011;40758;54.038;11.684;2023-06-22T02:44:16;12.00;;;6.35;;
7295;SDS011;40758;54.038;11.684;2023-06-22T02:46:44;11.55;;;7.13;;
7295;SDS011;40758;54.038;11.684;2023-06-22T02:49:11;10.63;;;7.57;;
7295;SDS011;40758;54.038;11.684;2023-06-22T02:51:39;11.05;;;6.60;;
7295;SDS011;40758;54.038;11.684;2023-06-22T02:54:11;10.60;;;6.65;;
7295;SDS011;40758;54.038;11.684;2023-06-22T02:56:38;9.98;;;8.00;;
7295;SDS011;40758;54.038;11.684;2023-06-22T02:59:07;10.52;;;6.95;;
7295;SDS011;40758;54.038;11.684;2023-06-22T03:01:33;12.00;;;6.82;;
7295;SDS011;40758;54.038;11.684;2023-06-22T03:04:06;13.40;;;7.30;;
7295;SDS011;40758;54.038;11.684;2023-06-22T03:06:34;13.10;;;7.25;;
7295;SDS011;40758;54.038;11.684;2023-06-22T03:09:02;11.70;;;6.40;;
7295;SDS011;40758;54.038;11.684;2023-06-22T03:11:31;10.98;;;7.15;;
7295;SDS011;40758;54.038;11.684;2023-06-22T03:14:02;13.40;;;7.13;;
7295;SDS011;40758;54.038;11.684;2023-06-22T03:16:28;11.93;;;7.53;;
7295;SDS011;40758;54.038;11.684;2023-06-22T03:18:55;10.65;;;7.50;;
7295;SDS011;40758;54.038;11.684;2023-06-22T03:21:25;14.77;;;9.43;;
7295;SDS011;40758;54.038;11.684;2023-06-22T03:23:54;15.82;;;9.35;;
7295;SDS011;40758;54.038;11.684;2023-06-22T03:26:21;15.73;;;8.63;;
7295;SDS011;40758;54.038;11.684;2023-06-22T03:28:48;15.85;;;8.13;;
7295;SDS011;40758;54.038;11.684;2023-06-22T03:31:15;10.60;;;7.32;;
7295;SDS011;40758;54.038;11.684;2023-06-22T03:33:42;10.77;;;6.63;;
7295;SDS011;40758;54.038;11.684;2023-06-22T03:36:08;11.07;;;5.80;;
7295;SDS011;40758;54.038;11.684;2023-06-22T03:38:35;10.27;;;6.65;;
7295;SDS011;40758;54.038;11.684;2023-06-22T03:41:02;10.43;;;7.13;;
7295;SDS011;40758;54.038;11.684;2023-06-22T03:43:28;12.20;;;6.80;;
7295;SDS011;40758;54.038;11.684;2023-06-22T03:45:55;10.80;;;7.22;;
7295;SDS011;40758;54.038;11.684;2023-06-22T03:48:22;10.15;;;7.93;;
7295;SDS011;40758;54.038;11.684;2023-06-22T03:50:48;11.02;;;7.43;;
7295;SDS011;40758;54.038;11.684;2023-06-22T03:53:15;11.05;;;6.53;;
7295;SDS011;40758;54.038;11.684;2023-06-22T03:55:48;12.13;;;8.18;;
7295;SDS011;40758;54.038;11.684;2023-06-22T03:58:17;13.60;;;8.10;;
7295;SDS011;40758;54.038;11.684;2023-06-22T04:00:49;14.02;;;8.85;;
7295;SDS011;40758;54.038;11.684;2023-06-22T04:03:16;11.57;;;7.05;;
7295;SDS011;40758;54.038;11.684;2023-06-22T04:05:47;11.65;;;7.70;;
7295;SDS011;40758;54.038;11.684;2023-06-22T04:08:15;11.93;;;8.07;;
7295;SDS011;40758;54.038;11.684;2023-06-22T04:10:42;12.13;;;7.65;;
7295;SDS011;40758;54.038;11.684;2023-06-22T04:13:09;12.70;;;8.45;;
7295;SDS011;40758;54.038;11.684;2023-06-22T04:15:36;11.48;;;8.90;;
7295;SDS011;40758;54.038;11.684;2023-06-22T04:18:02;12.48;;;8.27;;
7295;SDS011;40758;54.038;11.684;2023-06-22T04:20:31;11.48;;;7.63;;
7295;SDS011;40758;54.038;11.684;2023-06-22T04:22:59;10.85;;;7.30;;
7295;SDS011;40758;54.038;11.684;2023-06-22T04:25:26;12.98;;;8.35;;
7295;SDS011;40758;54.038;11.684;2023-06-22T04:27:52;12.45;;;7.20;;
7295;SDS011;40758;54.038;11.684;2023-06-22T04:30:19;12.85;;;6.88;;
7295;SDS011;40758;54.038;11.684;2023-06-22T04:32:46;14.32;;;7.82;;
7295;SDS011;40758;54.038;11.684;2023-06-22T04:35:23;14.20;;;8.13;;
7295;SDS011;40758;54.038;11.684;2023-06-22T04:37:52;15.02;;;6.88;;
7295;SDS011;40758;54.038;11.684;2023-06-22T04:40:24;13.45;;;7.53;;
7295;SDS011;40758;54.038;11.684;2023-06-22T04:42:51;11.05;;;8.38;;
7295;SDS011;40758;54.038;11.684;2023-06-22T04:45:19;8.85;;;5.30;;
7295;SDS011;40758;54.038;11.684;2023-06-22T04:47:46;8.73;;;5.40;;
7295;SDS011;40758;54.038;11.684;2023-06-22T04:50:13;9.10;;;5.45;;
7295;SDS011;40758;54.038;11.684;2023-06-22T04:52:40;7.90;;;4.97;;
7295;SDS011;40758;54.038;11.684;2023-06-22T04:55:07;11.80;;;5.25;;
7295;SDS011;40758;54.038;11.684;2023-06-22T04:57:35;10.55;;;6.43;;
7295;SDS011;40758;54.038;11.684;2023-06-22T05:00:03;9.52;;;6.38;;
7295;SDS011;40758;54.038;11.684;2023-06-22T05:02:39;14.07;;;6.85;;
7295;SDS011;40758;54.038;11.684;2023-06-22T05:05:07;12.27;;;7.45;;
7295;SDS011;40758;54.038;11.684;2023-06-22T05:07:35;13.40;;;6.88;;
7295;SDS011;40758;54.038;11.684;2023-06-22T05:10:02;13.20;;;6.65;;
7295;SDS011;40758;54.038;11.684;2023-06-22T05:12:30;11.95;;;6.68;;
7295;SDS011;40758;54.038;11.684;2023-06-22T05:14:57;9.65;;;7.00;;
7295;SDS011;40758;54.038;11.684;2023-06-22T05:17:24;10.13;;;6.43;;
7295;SDS011;40758;54.038;11.684;2023-06-22T05:19:51;8.63;;;6.95;;
7295;SDS011;40758;54.038;11.684;2023-06-22T05:22:18;11.63;;;7.55;;
7295;SDS011;40758;54.038;11.684;2023-06-22T05:24:45;11.50;;;7.35;;
7295;SDS011;40758;54.038;11.684;2023-06-22T05:27:12;11.10;;;7.32;;
7295;SDS011;40758;54.038;11.684;2023-06-22T05:29:39;11.27;;;7.03;;
7295;SDS011;40758;54.038;11.684;2023-06-22T05:32:07;14.38;;;6.70;;
7295;SDS011;40758;54.038;11.684;2023-06-22T05:34:33;12.38;;;8.23;;
7295;SDS011;40758;54.038;11.684;2023-06-22T05:37:01;13.02;;;7.65;;
7295;SDS011;40758;54.038;11.684;2023-06-22T05:39:28;12.45;;;7.32;;
7295;SDS011;40758;54.038;11.684;2023-06-22T05:41:55;13.27;;;8.75;;
7295;SDS011;40758;54.038;11.684;2023-06-22T05:44:22;12.15;;;8.45;;
7295;SDS011;40758;54.038;11.684;2023-06-22T05:46:48;12.77;;;10.90;;
7295;SDS011;40758;54.038;11.684;2023-06-22T05:49:16;11.80;;;8.88;;
7295;SDS011;40758;54.038;11.684;2023-06-22T05:51:43;12.68;;;8.93;;
7295;SDS011;40758;54.038;11.684;2023-06-22T05:54:10;14.95;;;10.13;;
7295;SDS011;40758;54.038;11.684;2023-06-22T05:56:36;14.10;;;9.57;;
7295;SDS011;40758;54.038;11.684;2023-06-22T05:59:03;11.23;;;8.23;;
7295;SDS011;40758;54.038;11.684;2023-06-22T06:01:31;11.88;;;9.45;;
7295;SDS011;40758;54.038;11.684;2023-06-22T06:04:02;17.30;;;9.13;;
7295;SDS011;40758;54.038;11.684;2023-06-22T06:06:30;11.43;;;8.55;;
7295;SDS011;40758;54.038;11.684;2023-06-22T06:08:57;12.90;;;10.13;;
7295;SDS011;40758;54.038;11.684;2023-06-22T06:13:52;12.40;;;9.18;;
7295;SDS011;40758;54.038;11.684;2023-06-22T06:16:19;15.60;;;8.30;;
7295;SDS011;40758;54.038;11.684;2023-06-22T06:18:45;12.95;;;7.20;;
7295;SDS011;40758;54.038;11.684;2023-06-22T06:21:12;11.50;;;6.55;;
7295;SDS011;40758;54.038;11.684;2023-06-22T06:23:40;10.25;;;5.82;;
7295;SDS011;40758;54.038;11.684;2023-06-22T06:26:06;8.02;;;5.03;;
7295;SDS011;40758;54.038;11.684;2023-06-22T06:28:34;6.43;;;4.50;;
7295;SDS011;40758;54.038;11.684;2023-06-22T06:31:01;7.45;;;3.72;;
7295;SDS011;40758;54.038;11.684;2023-06-22T06:33:27;8.52;;;3.88;;
7295;SDS011;40758;54.038;11.684;2023-06-22T06:35:54;7.05;;;4.43;;
7295;SDS011;40758;54.038;11.684;2023-06-22T06:38:22;8.02;;;4.75;;
7295;SDS011;40758;54.038;11.684;2023-06-22T06:40:48;7.75;;;4.60;;
7295;SDS011;40758;54.038;11.684;2023-06-22T06:43:15;8.30;;;5.10;;
7295;SDS011;40758;54.038;11.684;2023-06-22T06:45:42;7.25;;;3.97;;
7295;SDS011;40758;54.038;11.684;2023-06-22T06:48:09;7.35;;;3.97;;
7295;SDS011;40758;54.038;11.684;2023-06-22T06:50:36;7.90;;;4.97;;
7295;SDS011;40758;54.038;11.684;2023-06-22T06:53:03;7.70;;;4.22;;
7295;SDS011;40758;54.038;11.684;2023-06-22T06:55:29;7.13;;;5.60;;
7295;SDS011;40758;54.038;11.684;2023-06-22T06:57:59;7.85;;;5.05;;
7295;SDS011;40758;54.038;11.684;2023-06-22T07:00:26;8.15;;;5.70;;
7295;SDS011;40758;54.038;11.684;2023-06-22T07:02:53;8.13;;;5.38;;
7295;SDS011;40758;54.038;11.684;2023-06-22T07:05:20;5.95;;;3.63;;
7295;SDS011;40758;54.038;11.684;2023-06-22T07:07:47;6.20;;;4.35;;
7295;SDS011;40758;54.038;11.684;2023-06-22T07:10:13;6.40;;;4.95;;
7295;SDS011;40758;54.038;11.684;2023-06-22T07:12:42;8.88;;;4.47;;
7295;SDS011;40758;54.038;11.684;2023-06-22T07:15:09;6.47;;;4.72;;
7295;SDS011;40758;54.038;11.684;2023-06-22T07:17:36;7.47;;;4.13;;
7295;SDS011;40758;54.038;11.684;2023-06-22T07:20:03;6.25;;;3.70;;
7295;SDS011;40758;54.038;11.684;2023-06-22T07:22:36;5.25;;;3.08;;
7295;SDS011;40758;54.038;11.684;2023-06-22T07:25:04;5.05;;;2.80;;
7295;SDS011;40758;54.038;11.684;2023-06-22T07:27:36;5.93;;;2.53;;
7295;SDS011;40758;54.038;11.684;2023-06-22T07:30:04;4.22;;;2.83;;
7295;SDS011;40758;54.038;11.684;2023-06-22T07:32:31;3.83;;;2.15;;
7295;SDS011;40758;54.038;11.684;2023-06-22T07:34:59;5.15;;;3.05;;
7295;SDS011;40758;54.038;11.684;2023-06-22T07:37:26;4.10;;;2.90;;
7295;SDS011;40758;54.038;11.684;2023-06-22T07:39:57;5.28;;;2.67;;
7295;SDS011;40758;54.038;11.684;2023-06-22T07:42:25;3.72;;;1.48;;
7295;SDS011;40758;54.038;11.684;2023-06-22T07:47:19;3.33;;;1.73;;
7295;SDS011;40758;54.038;11.684;2023-06-22T07:49:46;5.75;;;3.50;;
7295;SDS011;40758;54.038;11.684;2023-06-22T07:52:13;4.35;;;1.58;;
7295;SDS011;40758;54.038;11.684;2023-06-22T07:54:40;3.55;;;1.83;;
7295;SDS011;40758;54.038;11.684;2023-06-22T07:57:06;3.60;;;1.77;;
7295;SDS011;40758;54.038;11.684;2023-06-22T07:59:33;4.30;;;2.13;;
7295;SDS011;40758;54.038;11.684;2023-06-22T08:02:00;3.65;;;2.17;;
7295;SDS011;40758;54.038;11.684;2023-06-22T08:04:29;3.83;;;1.27;;
7295;SDS011;40758;54.038;11.684;2023-06-22T08:06:57;4.43;;;2.30;;
7295;SDS011;40758;54.038;11.684;2023-06-22T08:09:24;4.15;;;2.08;;
7295;SDS011;40758;54.038;11.684;2023-06-22T08:11:51;4.20;;;1.92;;
7295;SDS011;40758;54.038;11.684;2023-06-22T08:14:17;4.03;;;1.83;;
7295;SDS011;40758;54.038;11.684;2023-06-22T08:16:44;3.35;;;1.90;;
7295;SDS011;40758;54.038;11.684;2023-06-22T08:19:11;3.13;;;2.67;;
7295;SDS011;40758;54.038;11.684;2023-06-22T08:21:37;3.92;;;1.55;;
7295;SDS011;40758;54.038;11.684;2023-06-22T08:24:04;3.53;;;1.80;;
7295;SDS011;40758;54.038;11.684;2023-06-22T08:26:31;4.07;;;2.30;;
7295;SDS011;40758;54.038;11.684;2023-06-22T08:29:02;3.13;;;2.25;;
7295;SDS011;40758;54.038;11.684;2023-06-22T08:31:30;3.80;;;2.22;;
7295;SDS011;40758;54.038;11.684;2023-06-22T08:34:00;4.63;;;2.33;;
7295;SDS011;40758;54.038;11.684;2023-06-22T08:36:27;3.53;;;1.67;;
7295;SDS011;40758;54.038;11.684;2023-06-22T08:39:01;3.38;;;1.27;;
7295;SDS011;40758;54.038;11.684;2023-06-22T08:41:29;4.32;;;2.22;;
7295;SDS011;40758;54.038;11.684;2023-06-22T08:43:57;3.67;;;1.63;;
7295;SDS011;40758;54.038;11.684;2023-06-22T08:46:24;3.00;;;1.10;;
7295;SDS011;40758;54.038;11.684;2023-06-22T08:48:57;4.43;;;1.65;;
7295;SDS011;40758;54.038;11.684;2023-06-22T08:51:24;4.43;;;2.17;;
7295;SDS011;40758;54.038;11.684;2023-06-22T08:53:50;3.83;;;1.45;;
7295;SDS011;40758;54.038;11.684;2023-06-22T08:56:17;4.10;;;2.17;;
7295;SDS011;40758;54.038;11.684;2023-06-22T08:58:45;3.33;;;1.38;;
7295;SDS011;40758;54.038;11.684;2023-06-22T09:01:11;4.03;;;1.83;;
7295;SDS011;40758;54.038;11.684;2023-06-22T09:03:38;2.70;;;1.95;;
7295;SDS011;40758;54.038;11.684;2023-06-22T09:06:05;3.05;;;1.42;;
7295;SDS011;40758;54.038;11.684;2023-06-22T09:08:32;3.88;;;2.13;;
7295;SDS011;40758;54.038;11.684;2023-06-22T09:10:58;4.07;;;2.47;;
7295;SDS011;40758;54.038;11.684;2023-06-22T09:13:25;3.20;;;1.58;;
7295;SDS011;40758;54.038;11.684;2023-06-22T09:15:52;4.35;;;1.63;;
7295;SDS011;40758;54.038;11.684;2023-06-22T09:18:19;3.30;;;1.85;;
7295;SDS011;40758;54.038;11.684;2023-06-22T09:20:45;4.00;;;1.70;;
7295;SDS011;40758;54.038;11.684;2023-06-22T09:23:12;3.20;;;2.55;;
7295;SDS011;40758;54.038;11.684;2023-06-22T09:25:39;3.10;;;1.80;;
7295;SDS011;40758;54.038;11.684;2023-06-22T09:28:07;3.95;;;1.85;;
7295;SDS011;40758;54.038;11.684;2023-06-22T09:30:33;2.70;;;1.02;;
7295;SDS011;40758;54.038;11.684;2023-06-22T09:33:00;3.08;;;2.38;;
7295;SDS011;40758;54.038;11.684;2023-06-22T09:35:27;3.67;;;1.65;;
7295;SDS011;40758;54.038;11.684;2023-06-22T09:37:54;3.08;;;1.35;;
7295;SDS011;40758;54.038;11.684;2023-06-22T09:40:21;2.53;;;1.48;;
7295;SDS011;40758;54.038;11.684;2023-06-22T09:42:48;2.45;;;0.95;;
7295;SDS011;40758;54.038;11.684;2023-06-22T09:45:15;3.50;;;2.17;;
7295;SDS011;40758;54.038;11.684;2023-06-22T09:47:42;2.90;;;1.92;;
7295;SDS011;40758;54.038;11.684;2023-06-22T09:50:09;2.80;;;1.38;;
7295;SDS011;40758;54.038;11.684;2023-06-22T09:52:36;5.68;;;1.45;;
7295;SDS011;40758;54.038;11.684;2023-06-22T09:55:06;5.93;;;1.70;;
7295;SDS011;40758;54.038;11.684;2023-06-22T09:57:33;2.75;;;1.48;;
7295;SDS011;40758;54.038;11.684;2023-06-22T09:59:59;2.85;;;1.65;;
7295;SDS011;40758;54.038;11.684;2023-06-22T10:02:26;3.22;;;1.15;;
7295;SDS011;40758;54.038;11.684;2023-06-22T10:04:53;2.92;;;1.88;;
7295;SDS011;40758;54.038;11.684;2023-06-22T10:07:20;3.60;;;1.42;;
7295;SDS011;40758;54.038;11.684;2023-06-22T10:09:47;2.70;;;1.05;;
7295;SDS011;40758;54.038;11.684;2023-06-22T10:12:14;3.17;;;1.20;;
7295;SDS011;40758;54.038;11.684;2023-06-22T10:14:40;3.08;;;2.17;;
7295;SDS011;40758;54.038;11.684;2023-06-22T10:17:08;2.95;;;1.55;;
7295;SDS011;40758;54.038;11.684;2023-06-22T10:19:35;2.75;;;1.20;;
7295;SDS011;40758;54.038;11.684;2023-06-22T10:22:06;2.70;;;1.08;;
7295;SDS011;40758;54.038;11.684;2023-06-22T10:24:33;3.53;;;1.35;;
7295;SDS011;40758;54.038;11.684;2023-06-22T10:26:59;3.05;;;1.75;;
7295;SDS011;40758;54.038;11.684;2023-06-22T10:29:26;3.20;;;1.35;;
7295;SDS011;40758;54.038;11.684;2023-06-22T10:31:53;3.67;;;2.08;;
7295;SDS011;40758;54.038;11.684;2023-06-22T10:34:20;2.72;;;1.05;;
7295;SDS011;40758;54.038;11.684;2023-06-22T10:36:46;3.22;;;1.50;;
7295;SDS011;40758;54.038;11.684;2023-06-22T10:39:15;3.00;;;1.98;;
7295;SDS011;40758;54.038;11.684;2023-06-22T10:41:42;4.10;;;1.33;;
7295;SDS011;40758;54.038;11.684;2023-06-22T10:44:08;2.25;;;1.08;;
7295;SDS011;40758;54.038;11.684;2023-06-22T10:46:35;2.30;;;1.10;;
7295;SDS011;40758;54.038;11.684;2023-06-22T10:49:02;3.92;;;1.40;;
7295;SDS011;40758;54.038;11.684;2023-06-22T10:51:29;3.30;;;1.50;;
7295;SDS011;40758;54.038;11.684;2023-06-22T10:53:57;2.53;;;1.33;;
7295;SDS011;40758;54.038;11.684;2023-06-22T10:56:24;2.40;;;1.20;;
7295;SDS011;40758;54.038;11.684;2023-06-22T10:58:50;3.83;;;1.50;;
7295;SDS011;40758;54.038;11.684;2023-06-22T11:01:17;4.07;;;1.30;;
7295;SDS011;40758;54.038;11.684;2023-06-22T11:04:00;2.67;;;1.23;;
7295;SDS011;40758;54.038;11.684;2023-06-22T11:06:28;2.88;;;1.13;;
7295;SDS011;40758;54.038;11.684;2023-06-22T11:08:54;2.50;;;1.30;;
7295;SDS011;40758;54.038;11.684;2023-06-22T11:11:32;2.38;;;0.98;;
7295;SDS011;40758;54.038;11.684;2023-06-22T11:13:58;3.65;;;1.23;;
7295;SDS011;40758;54.038;11.684;2023-06-22T11:16:25;3.60;;;1.17;;
7295;SDS011;40758;54.038;11.684;2023-06-22T11:18:52;3.05;;;1.23;;
7295;SDS011;40758;54.038;11.684;2023-06-22T11:21:19;3.33;;;1.10;;
7295;SDS011;40758;54.038;11.684;2023-06-22T11:23:46;2.85;;;0.77;;
7295;SDS011;40758;54.038;11.684;2023-06-22T11:26:12;4.00;;;1.48;;
7295;SDS011;40758;54.038;11.684;2023-06-22T11:28:39;3.85;;;1.77;;
7295;SDS011;40758;54.038;11.684;2023-06-22T11:31:05;4.07;;;1.70;;
7295;SDS011;40758;54.038;11.684;2023-06-22T11:33:51;2.88;;;1.48;;
7295;SDS011;40758;54.038;11.684;2023-06-22T11:36:18;3.15;;;1.55;;
7295;SDS011;40758;54.038;11.684;2023-06-22T11:38:45;2.70;;;1.45;;
7295;SDS011;40758;54.038;11.684;2023-06-22T11:41:12;2.70;;;1.33;;
7295;SDS011;40758;54.038;11.684;2023-06-22T11:43:38;2.85;;;1.25;;
7295;SDS011;40758;54.038;11.684;2023-06-22T11:46:05;3.03;;;1.55;;
7295;SDS011;40758;54.038;11.684;2023-06-22T11:48:32;3.63;;;1.80;;
7295;SDS011;40758;54.038;11.684;2023-06-22T11:50:59;2.75;;;1.42;;
7295;SDS011;40758;54.038;11.684;2023-06-22T11:53:26;3.30;;;1.50;;
7295;SDS011;40758;54.038;11.684;2023-06-22T11:55:54;3.30;;;1.50;;
7295;SDS011;40758;54.038;11.684;2023-06-22T12:00:48;3.00;;;1.33;;
7295;SDS011;40758;54.038;11.684;2023-06-22T12:03:18;3.88;;;1.05;;
7295;SDS011;40758;54.038;11.684;2023-06-22T12:05:46;2.70;;;1.08;;
7295;SDS011;40758;54.038;11.684;2023-06-22T12:08:13;3.30;;;1.27;;
7295;SDS011;40758;54.038;11.684;2023-06-22T12:10:40;4.03;;;1.75;;
7295;SDS011;40758;54.038;11.684;2023-06-22T12:13:07;2.65;;;0.93;;
7295;SDS011;40758;54.038;11.684;2023-06-22T12:15:33;4.13;;;2.17;;
7295;SDS011;40758;54.038;11.684;2023-06-22T12:18:00;5.10;;;2.13;;
7295;SDS011;40758;54.038;11.684;2023-06-22T12:20:27;2.90;;;1.40;;
7295;SDS011;40758;54.038;11.684;2023-06-22T12:22:55;2.92;;;1.23;;
7295;SDS011;40758;54.038;11.684;2023-06-22T12:25:24;3.28;;;1.35;;
7295;SDS011;40758;54.038;11.684;2023-06-22T12:27:51;3.47;;;1.48;;
7295;SDS011;40758;54.038;11.684;2023-06-22T12:30:18;3.13;;;2.40;;
7295;SDS011;40758;54.038;11.684;2023-06-22T12:32:45;2.58;;;1.13;;
7295;SDS011;40758;54.038;11.684;2023-06-22T12:35:11;3.53;;;1.67;;
7295;SDS011;40758;54.038;11.684;2023-06-22T12:37:41;3.03;;;1.27;;
7295;SDS011;40758;54.038;11.684;2023-06-22T12:40:09;3.05;;;1.30;;
7295;SDS011;40758;54.038;11.684;2023-06-22T12:42:36;2.88;;;2.05;;
7295;SDS011;40758;54.038;11.684;2023-06-22T12:45:03;3.20;;;1.23;;
7295;SDS011;40758;54.038;11.684;2023-06-22T12:47:30;3.35;;;1.77;;
7295;SDS011;40758;54.038;11.684;2023-06-22T12:49:57;3.20;;;1.35;;
7295;SDS011;40758;54.038;11.684;2023-06-22T12:52:24;3.22;;;1.38;;
7295;SDS011;40758;54.038;11.684;2023-06-22T12:54:51;4.88;;;1.23;;
7295;SDS011;40758;54.038;11.684;2023-06-22T12:57:21;2.90;;;1.60;;
7295;SDS011;40758;54.038;11.684;2023-06-22T12:59:48;3.78;;;1.45;;
7295;SDS011;40758;54.038;11.684;2023-06-22T13:02:15;2.85;;;1.63;;
7295;SDS011;40758;54.038;11.684;2023-06-22T13:04:42;3.35;;;1.40;;
7295;SDS011;40758;54.038;11.684;2023-06-22T13:07:09;4.45;;;2.30;;
7295;SDS011;40758;54.038;11.684;2023-06-22T13:09:48;2.65;;;1.50;;
7295;SDS011;40758;54.038;11.684;2023-06-22T13:12:19;2.70;;;1.50;;
7295;SDS011;40758;54.038;11.684;2023-06-22T13:14:47;3.78;;;1.95;;
7295;SDS011;40758;54.038;11.684;2023-06-22T13:17:14;3.65;;;1.63;;
7295;SDS011;40758;54.038;11.684;2023-06-22T13:19:41;3.63;;;2.13;;
7295;SDS011;40758;54.038;11.684;2023-06-22T13:24:58;4.15;;;1.35;;
7295;SDS011;40758;54.038;11.684;2023-06-22T13:27:26;3.08;;;1.73;;
7295;SDS011;40758;54.038;11.684;2023-06-22T13:29:53;2.95;;;1.58;;
7295;SDS011;40758;54.038;11.684;2023-06-22T13:32:19;2.78;;;1.60;;
7295;SDS011;40758;54.038;11.684;2023-06-22T13:34:46;3.40;;;1.58;;
7295;SDS011;40758;54.038;11.684;2023-06-22T13:37:13;2.33;;;1.20;;
7295;SDS011;40758;54.038;11.684;2023-06-22T13:39:40;2.22;;;1.17;;
7295;SDS011;40758;54.038;11.684;2023-06-22T13:42:07;2.60;;;1.55;;
7295;SDS011;40758;54.038;11.684;2023-06-22T13:44:34;2.17;;;1.20;;
7295;SDS011;40758;54.038;11.684;2023-06-22T13:47:00;2.63;;;1.05;;
7295;SDS011;40758;54.038;11.684;2023-06-22T13:49:27;2.42;;;1.65;;
7295;SDS011;40758;54.038;11.684;2023-06-22T13:51:54;2.45;;;1.50;;
7295;SDS011;40758;54.038;11.684;2023-06-22T13:54:21;3.00;;;2.35;;
7295;SDS011;40758;54.038;11.684;2023-06-22T13:56:51;2.90;;;1.40;;
7295;SDS011;40758;54.038;11.684;2023-06-22T13:59:18;2.47;;;1.02;;
7295;SDS011;40758;54.038;11.684;2023-06-22T14:01:44;3.40;;;1.95;;
7295;SDS011;40758;54.038;11.684;2023-06-22T14:04:11;2.65;;;1.30;;
7295;SDS011;40758;54.038;11.684;2023-06-22T14:06:38;3.17;;;1.52;;
7295;SDS011;40758;54.038;11.684;2023-06-22T14:09:05;3.00;;;1.63;;
7295;SDS011;40758;54.038;11.684;2023-06-22T14:11:31;2.47;;;0.90;;
7295;SDS011;40758;54.038;11.684;2023-06-22T14:13:59;3.28;;;1.90;;
7295;SDS011;40758;54.038;11.684;2023-06-22T14:16:25;2.80;;;1.00;;
7295;SDS011;40758;54.038;11.684;2023-06-22T14:18:52;2.53;;;1.65;;
7295;SDS011;40758;54.038;11.684;2023-06-22T14:21:21;2.92;;;1.00;;
7295;SDS011;40758;54.038;11.684;2023-06-22T14:23:48;3.00;;;1.25;;
7295;SDS011;40758;54.038;11.684;2023-06-22T14:28:47;3.35;;;1.27;;
7295;SDS011;40758;54.038;11.684;2023-06-22T14:31:17;2.65;;;1.38;;
7295;SDS011;40758;54.038;11.684;2023-06-22T14:33:45;2.60;;;2.00;;
7295;SDS011;40758;54.038;11.684;2023-06-22T14:36:14;3.00;;;1.35;;
7295;SDS011;40758;54.038;11.684;2023-06-22T14:38:42;3.15;;;1.70;;
7295;SDS011;40758;54.038;11.684;2023-06-22T14:41:09;3.30;;;1.55;;
7295;SDS011;40758;54.038;11.684;2023-06-22T14:43:43;2.40;;;1.42;;
7295;SDS011;40758;54.038;11.684;2023-06-22T14:46:11;2.78;;;1.17;;
7295;SDS011;40758;54.038;11.684;2023-06-22T14:48:38;4.00;;;1.60;;
7295;SDS011;40758;54.038;11.684;2023-06-22T14:51:04;3.13;;;1.40;;
7295;SDS011;40758;54.038;11.684;2023-06-22T14:53:31;2.50;;;0.98;;
7295;SDS011;40758;54.038;11.684;2023-06-22T14:55:58;2.90;;;0.90;;
7295;SDS011;40758;54.038;11.684;2023-06-22T14:58:31;2.42;;;1.30;;
7295;SDS011;40758;54.038;11.684;2023-06-22T15:01:02;2.78;;;1.27;;
7295;SDS011;40758;54.038;11.684;2023-06-22T15:03:33;2.13;;;1.05;;
7295;SDS011;40758;54.038;11.684;2023-06-22T15:06:02;2.05;;;0.82;;